sensor_id;sensor_type;location;lat;lon;timestamp;pressure;altitude;pressure_sealevel;temperature
64296;BMP280;51082;38.236;15.432;2022-07-17T00:00:15;101601.94;;;24.99
64296;BMP280;51082;38.236;15.432;2022-07-17T00:01:18;101601.16;;;24.99
64296;BMP280;51082;38.236;15.432;2022-07-17T00:02:20;101599.03;;;25.06
64296;BMP280;51082;38.236;15.432;2022-07-17T00:03:23;101601.13;;;25.04
64296;BMP280;51082;38.236;15.432;2022-07-17T00:04:26;101595.28;;;24.97
64296;BMP280;51082;38.236;15.432;2022-07-17T00:05:29;101603.28;;;24.92
64296;BMP280;51082;38.236;15.432;2022-07-17T00:06:30;101599.28;;;24.94
64296;BMP280;51082;38.236;15.432;2022-07-17T00:07:33;101596.88;;;24.98
64296;BMP280;51082;38.236;15.432;2022-07-17T00:08:35;101597.41;;;25.05
64296;BMP280;51082;38.236;15.432;2022-07-17T00:09:37;101590.47;;;25.04
64296;BMP280;51082;38.236;15.432;2022-07-17T00:10:41;101593.69;;;25.01
64296;BMP280;51082;38.236;15.432;2022-07-17T00:11:44;101591.28;;;25.04
64296;BMP280;51082;38.236;15.432;2022-07-17T00:12:46;101598.47;;;25.04
64296;BMP280;51082;38.236;15.432;2022-07-17T00:13:48;101593.94;;;25.04
64296;BMP280;51082;38.236;15.432;2022-07-17T00:14:50;101593.13;;;25.04
64296;BMP280;51082;38.236;15.432;2022-07-17T00:15:53;101585.13;;;25.04
64296;BMP280;51082;38.236;15.432;2022-07-17T00:16:54;101597.66;;;25.08
64296;BMP280;51082;38.236;15.432;2022-07-17T00:17:59;101579.31;;;25.07
64296;BMP280;51082;38.236;15.432;2022-07-17T00:19:00;101583.53;;;25.08
64296;BMP280;51082;38.236;15.432;2022-07-17T00:20:05;101583.53;;;25.08
64296;BMP280;51082;38.236;15.432;2022-07-17T00:21:08;101591.28;;;25.04
64296;BMP280;51082;38.236;15.432;2022-07-17T00:22:10;101582.47;;;25.09
64296;BMP280;51082;38.236;15.432;2022-07-17T00:23:12;101581.44;;;25.10
64296;BMP280;51082;38.236;15.432;2022-07-17T00:24:15;101589.44;;;25.10
64296;BMP280;51082;38.236;15.432;2022-07-17T00:25:21;101580.06;;;25.12
64296;BMP280;51082;38.236;15.432;2022-07-17T00:26:24;101586.72;;;25.15
64296;BMP280;51082;38.236;15.432;2022-07-17T00:27:26;101586.47;;;25.11
64296;BMP280;51082;38.236;15.432;2022-07-17T00:28:28;101585.66;;;25.11
64296;BMP280;51082;38.236;15.432;2022-07-17T00:29:30;101580.38;;;25.06
64296;BMP280;51082;38.236;15.432;2022-07-17T00:30:33;101575.28;;;25.04
64296;BMP280;51082;38.236;15.432;2022-07-17T00:31:35;101574.75;;;25.07
64296;BMP280;51082;38.236;15.432;2022-07-17T00:32:38;101586.75;;;25.05
64296;BMP280;51082;38.236;15.432;2022-07-17T00:33:39;101588.09;;;25.02
64296;BMP280;51082;38.236;15.432;2022-07-17T00:34:42;101587.03;;;24.98
64296;BMP280;51082;38.236;15.432;2022-07-17T00:35:45;101581.97;;;24.97
64296;BMP280;51082;38.236;15.432;2022-07-17T00:36:48;101581.72;;;24.98
64296;BMP280;51082;38.236;15.432;2022-07-17T00:37:49;101578.50;;;24.96
64296;BMP280;51082;38.236;15.432;2022-07-17T00:38:53;101580.91;;;24.98
64296;BMP280;51082;38.236;15.432;2022-07-17T00:39:55;101580.91;;;24.98
64296;BMP280;51082;38.236;15.432;2022-07-17T00:40:58;101580.09;;;24.97
64296;BMP280;51082;38.236;15.432;2022-07-17T00:42:00;101581.44;;;24.95
64296;BMP280;51082;38.236;15.432;2022-07-17T00:43:02;101579.31;;;24.97
64296;BMP280;51082;38.236;15.432;2022-07-17T00:44:06;101581.97;;;24.92
64296;BMP280;51082;38.236;15.432;2022-07-17T00:45:09;101585.69;;;24.96
64296;BMP280;51082;38.236;15.432;2022-07-17T00:46:12;101585.16;;;24.94
64296;BMP280;51082;38.236;15.432;2022-07-17T00:47:15;101576.09;;;24.95
64296;BMP280;51082;38.236;15.432;2022-07-17T00:48:18;101586.25;;;24.98
64296;BMP280;51082;38.236;15.432;2022-07-17T00:49:20;101578.25;;;25.03
64296;BMP280;51082;38.236;15.432;2022-07-17T00:50:26;101585.69;;;25.01
64296;BMP280;51082;38.236;15.432;2022-07-17T00:51:29;101576.63;;;25.02
64296;BMP280;51082;38.236;15.432;2022-07-17T00:52:31;101581.41;;;25.05
64296;BMP280;51082;38.236;15.432;2022-07-17T00:53:33;101579.81;;;25.09
64296;BMP280;51082;38.236;15.432;2022-07-17T00:54:38;101588.88;;;25.13
64296;BMP280;51082;38.236;15.432;2022-07-17T00:55:41;101573.94;;;25.17
64296;BMP280;51082;38.236;15.432;2022-07-17T00:56:46;101581.63;;;25.18
64296;BMP280;51082;38.236;15.432;2022-07-17T00:57:49;101582.47;;;25.19
64296;BMP280;51082;38.236;15.432;2022-07-17T00:58:53;101585.38;;;25.17
64296;BMP280;51082;38.236;15.432;2022-07-17T00:59:55;101579.53;;;25.15
64296;BMP280;51082;38.236;15.432;2022-07-17T01:00:57;101590.19;;;25.21
64296;BMP280;51082;38.236;15.432;2022-07-17T01:01:59;101587.22;;;25.22
64296;BMP280;51082;38.236;15.432;2022-07-17T01:03:02;101580.31;;;25.21
64296;BMP280;51082;38.236;15.432;2022-07-17T01:04:05;101588.28;;;25.21
64296;BMP280;51082;38.236;15.432;2022-07-17T01:05:07;101581.09;;;25.22
64296;BMP280;51082;38.236;15.432;2022-07-17T01:06:09;101581.41;;;25.20
64296;BMP280;51082;38.236;15.432;2022-07-17T01:07:13;101582.47;;;25.19
64296;BMP280;51082;38.236;15.432;2022-07-17T01:08:15;101580.31;;;25.21
64296;BMP280;51082;38.236;15.432;2022-07-17T01:09:18;101573.41;;;25.20
64296;BMP280;51082;38.236;15.432;2022-07-17T01:10:19;101584.88;;;25.21
64296;BMP280;51082;38.236;15.432;2022-07-17T01:11:22;101584.06;;;25.20
64296;BMP280;51082;38.236;15.432;2022-07-17T01:12:24;101582.47;;;25.19
64296;BMP280;51082;38.236;15.432;2022-07-17T01:13:27;101585.38;;;25.17
64296;BMP280;51082;38.236;15.432;2022-07-17T01:14:29;101580.84;;;25.18
64296;BMP280;51082;38.236;15.432;2022-07-17T01:15:32;101582.47;;;25.19
64296;BMP280;51082;38.236;15.432;2022-07-17T01:16:33;101583.81;;;25.16
64296;BMP280;51082;38.236;15.432;2022-07-17T01:17:37;101577.94;;;25.14
64296;BMP280;51082;38.236;15.432;2022-07-17T01:18:41;101575.00;;;25.11
64296;BMP280;51082;38.236;15.432;2022-07-17T01:19:44;101580.34;;;25.11
64296;BMP280;51082;38.236;15.432;2022-07-17T01:20:47;101574.47;;;25.09
64296;BMP280;51082;38.236;15.432;2022-07-17T01:21:51;101580.06;;;25.07
64296;BMP280;51082;38.236;15.432;2022-07-17T01:22:53;101579.81;;;25.04
64296;BMP280;51082;38.236;15.432;2022-07-17T01:23:56;101587.03;;;25.03
64296;BMP280;51082;38.236;15.432;2022-07-17T01:24:58;101585.13;;;25.04
64296;BMP280;51082;38.236;15.432;2022-07-17T01:26:00;101579.53;;;25.00
64296;BMP280;51082;38.236;15.432;2022-07-17T01:27:02;101583.31;;;24.99
64296;BMP280;51082;38.236;15.432;2022-07-17T01:28:05;101578.78;;;25.00
64296;BMP280;51082;38.236;15.432;2022-07-17T01:29:08;101571.03;;;24.98
64296;BMP280;51082;38.236;15.432;2022-07-17T01:30:11;101579.31;;;24.97
64296;BMP280;51082;38.236;15.432;2022-07-17T01:31:13;101578.78;;;24.95
64296;BMP280;51082;38.236;15.432;2022-07-17T01:32:16;101576.63;;;24.92
64296;BMP280;51082;38.236;15.432;2022-07-17T01:33:18;101580.94;;;24.88
64296;BMP280;51082;38.236;15.432;2022-07-17T01:34:20;101576.94;;;24.85
64296;BMP280;51082;38.236;15.432;2022-07-17T01:35:22;101581.72;;;24.83
64296;BMP280;51082;38.236;15.432;2022-07-17T01:36:25;101582.53;;;24.83
64296;BMP280;51082;38.236;15.432;2022-07-17T01:37:28;101574.53;;;24.83
64296;BMP280;51082;38.236;15.432;2022-07-17T01:38:31;101583.06;;;24.86
64296;BMP280;51082;38.236;15.432;2022-07-17T01:39:33;101582.25;;;24.85
64296;BMP280;51082;38.236;15.432;2022-07-17T01:40:53;101579.88;;;24.83
64296;BMP280;51082;38.236;15.432;2022-07-17T01:41:56;101581.19;;;24.81
64296;BMP280;51082;38.236;15.432;2022-07-17T01:42:58;101579.88;;;24.78
64296;BMP280;51082;38.236;15.432;2022-07-17T01:44:00;101585.22;;;24.78
64296;BMP280;51082;38.236;15.432;2022-07-17T01:45:05;101577.47;;;24.77
64296;BMP280;51082;38.236;15.432;2022-07-17T01:46:07;101576.16;;;24.74
64296;BMP280;51082;38.236;15.432;2022-07-17T01:47:12;101582.00;;;24.76
64296;BMP280;51082;38.236;15.432;2022-07-17T01:48:23;101576.97;;;24.75
64296;BMP280;51082;38.236;15.432;2022-07-17T01:49:26;101577.50;;;24.72
64296;BMP280;51082;38.236;15.432;2022-07-17T01:50:27;101575.09;;;24.75
64296;BMP280;51082;38.236;15.432;2022-07-17T01:51:30;101577.19;;;24.73
64296;BMP280;51082;38.236;15.432;2022-07-17T01:52:35;101575.34;;;24.74
64296;BMP280;51082;38.236;15.432;2022-07-17T01:53:38;101575.88;;;24.71
64296;BMP280;51082;38.236;15.432;2022-07-17T01:54:40;101579.84;;;24.73
64296;BMP280;51082;38.236;15.432;2022-07-17T01:55:43;101577.75;;;24.70
64296;BMP280;51082;38.236;15.432;2022-07-17T01:56:44;101579.84;;;24.73
64296;BMP280;51082;38.236;15.432;2022-07-17T01:57:47;101569.75;;;24.70
64296;BMP280;51082;38.236;15.432;2022-07-17T01:58:48;101572.66;;;24.69
64296;BMP280;51082;38.236;15.432;2022-07-17T01:59:51;101571.09;;;24.68
64296;BMP280;51082;38.236;15.432;2022-07-17T02:00:53;101574.03;;;24.66
64296;BMP280;51082;38.236;15.432;2022-07-17T02:01:56;101575.88;;;24.66
64296;BMP280;51082;38.236;15.432;2022-07-17T02:02:57;101570.28;;;24.62
64296;BMP280;51082;38.236;15.432;2022-07-17T02:04:00;101578.56;;;24.61
64296;BMP280;51082;38.236;15.432;2022-07-17T02:05:02;101577.19;;;24.58
64296;BMP280;51082;38.236;15.432;2022-07-17T02:06:05;101580.38;;;24.55
64296;BMP280;51082;38.236;15.432;2022-07-17T02:07:06;101573.19;;;24.56
64296;BMP280;51082;38.236;15.432;2022-07-17T02:08:11;101566.00;;;24.51
64296;BMP280;51082;38.236;15.432;2022-07-17T02:09:12;101578.28;;;24.52
64296;BMP280;51082;38.236;15.432;2022-07-17T02:10:16;101574.56;;;24.53
64296;BMP280;51082;38.236;15.432;2022-07-17T02:11:18;101571.34;;;24.51
64296;BMP280;51082;38.236;15.432;2022-07-17T02:12:20;101573.19;;;24.56
64296;BMP280;51082;38.236;15.432;2022-07-17T02:13:22;101579.09;;;24.53
64296;BMP280;51082;38.236;15.432;2022-07-17T02:14:25;101579.63;;;24.50
64296;BMP280;51082;38.236;15.432;2022-07-17T02:15:27;101575.09;;;24.50
64296;BMP280;51082;38.236;15.432;2022-07-17T02:16:30;101579.63;;;24.50
64296;BMP280;51082;38.236;15.432;2022-07-17T02:17:31;101571.09;;;24.47
64296;BMP280;51082;38.236;15.432;2022-07-17T02:19:35;101575.88;;;24.40
64296;BMP280;51082;38.236;15.432;2022-07-17T02:21:39;101577.75;;;24.45
64296;BMP280;51082;38.236;15.432;2022-07-17T02:22:42;101581.22;;;24.51
64296;BMP280;51082;38.236;15.432;2022-07-17T02:23:45;101581.50;;;24.44
64296;BMP280;51082;38.236;15.432;2022-07-17T02:25:49;101576.66;;;24.41
64296;BMP280;51082;38.236;15.432;2022-07-17T02:26:51;101572.69;;;24.38
64296;BMP280;51082;38.236;15.432;2022-07-17T02:27:53;101574.81;;;24.36
64296;BMP280;51082;38.236;15.432;2022-07-17T02:28:55;101578.03;;;24.38
64296;BMP280;51082;38.236;15.432;2022-07-17T02:29:57;101580.41;;;24.40
64296;BMP280;51082;38.236;15.432;2022-07-17T02:31:00;101579.84;;;24.38
64296;BMP280;51082;38.236;15.432;2022-07-17T02:32:02;101588.41;;;24.35
64296;BMP280;51082;38.236;15.432;2022-07-17T02:33:04;101584.41;;;24.32
64296;BMP280;51082;38.236;15.432;2022-07-17T02:34:06;101591.03;;;24.30
64296;BMP280;51082;38.236;15.432;2022-07-17T02:35:09;101589.44;;;24.29
64296;BMP280;51082;38.236;15.432;2022-07-17T02:36:11;101587.31;;;24.31
64296;BMP280;51082;38.236;15.432;2022-07-17T02:37:14;101583.59;;;24.27
64296;BMP280;51082;38.236;15.432;2022-07-17T02:38:16;101588.38;;;24.30
64296;BMP280;51082;38.236;15.432;2022-07-17T02:39:21;101585.72;;;24.30
64296;BMP280;51082;38.236;15.432;2022-07-17T02:40:22;101585.97;;;24.33
64296;BMP280;51082;38.236;15.432;2022-07-17T02:41:25;101591.84;;;24.30
64296;BMP280;51082;38.236;15.432;2022-07-17T02:42:28;101589.69;;;24.27
64296;BMP280;51082;38.236;15.432;2022-07-17T02:43:31;101588.41;;;24.25
64296;BMP280;51082;38.236;15.432;2022-07-17T02:44:33;101589.72;;;24.22
64296;BMP280;51082;38.236;15.432;2022-07-17T02:45:35;101591.56;;;24.22
64296;BMP280;51082;38.236;15.432;2022-07-17T02:46:37;101595.31;;;24.21
64296;BMP280;51082;38.236;15.432;2022-07-17T02:47:41;101595.31;;;24.21
64296;BMP280;51082;38.236;15.432;2022-07-17T02:48:42;101594.50;;;24.25
64296;BMP280;51082;38.236;15.432;2022-07-17T02:49:45;101592.09;;;24.24
64296;BMP280;51082;38.236;15.432;2022-07-17T02:50:47;101592.63;;;24.21
64296;BMP280;51082;38.236;15.432;2022-07-17T02:51:50;101592.88;;;24.19
64296;BMP280;51082;38.236;15.432;2022-07-17T02:52:51;101604.31;;;24.20
64296;BMP280;51082;38.236;15.432;2022-07-17T02:53:55;101598.19;;;24.19
64296;BMP280;51082;38.236;15.432;2022-07-17T02:54:58;101597.13;;;24.15
64296;BMP280;51082;38.236;15.432;2022-07-17T02:56:00;101601.41;;;24.16
64296;BMP280;51082;38.236;15.432;2022-07-17T02:57:02;101598.75;;;24.16
64296;BMP280;51082;38.236;15.432;2022-07-17T02:58:05;101602.72;;;24.13
64296;BMP280;51082;38.236;15.432;2022-07-17T02:59:06;101600.56;;;24.16
64296;BMP280;51082;38.236;15.432;2022-07-17T03:00:11;101600.84;;;24.19
64296;BMP280;51082;38.236;15.432;2022-07-17T03:01:13;101591.00;;;24.20
64296;BMP280;51082;38.236;15.432;2022-07-17T03:02:15;101598.47;;;24.23
64296;BMP280;51082;38.236;15.432;2022-07-17T03:03:17;101601.66;;;24.20
64296;BMP280;51082;38.236;15.432;2022-07-17T03:04:21;101597.41;;;24.24
64296;BMP280;51082;38.236;15.432;2022-07-17T03:05:23;101596.63;;;24.18
64296;BMP280;51082;38.236;15.432;2022-07-17T03:06:25;101599.00;;;24.20
64296;BMP280;51082;38.236;15.432;2022-07-17T03:07:27;101598.47;;;24.18
64296;BMP280;51082;38.236;15.432;2022-07-17T03:08:30;101601.16;;;24.18
64296;BMP280;51082;38.236;15.432;2022-07-17T03:09:31;101607.78;;;24.15
64296;BMP280;51082;38.236;15.432;2022-07-17T03:10:36;101603.78;;;24.12
64296;BMP280;51082;38.236;15.432;2022-07-17T03:11:37;101603.25;;;24.10
64296;BMP280;51082;38.236;15.432;2022-07-17T03:12:40;101605.91;;;24.10
64296;BMP280;51082;38.236;15.432;2022-07-17T03:13:42;101603.78;;;24.12
64296;BMP280;51082;38.236;15.432;2022-07-17T03:14:45;101604.31;;;24.09
64296;BMP280;51082;38.236;15.432;2022-07-17T03:15:46;101593.66;;;24.09
64296;BMP280;51082;38.236;15.432;2022-07-17T03:16:49;101597.91;;;24.10
64296;BMP280;51082;38.236;15.432;2022-07-17T03:17:50;101599.00;;;24.15
64296;BMP280;51082;38.236;15.432;2022-07-17T03:18:53;101598.47;;;24.18
64296;BMP280;51082;38.236;15.432;2022-07-17T03:19:55;101599.00;;;24.15
64296;BMP280;51082;38.236;15.432;2022-07-17T03:20:57;101599.00;;;24.15
64296;BMP280;51082;38.236;15.432;2022-07-17T03:22:02;101600.56;;;24.16
64296;BMP280;51082;38.236;15.432;2022-07-17T03:23:04;101597.69;;;24.17
64296;BMP280;51082;38.236;15.432;2022-07-17T03:24:06;101599.81;;;24.15
64296;BMP280;51082;38.236;15.432;2022-07-17T03:25:09;101605.91;;;24.16
64296;BMP280;51082;38.236;15.432;2022-07-17T03:26:12;101602.22;;;24.11
64296;BMP280;51082;38.236;15.432;2022-07-17T03:27:15;101601.66;;;24.09
64296;BMP280;51082;38.236;15.432;2022-07-17T03:28:16;101609.63;;;24.04
64296;BMP280;51082;38.236;15.432;2022-07-17T03:29:19;101601.13;;;24.02
64296;BMP280;51082;38.236;15.432;2022-07-17T03:30:21;101602.16;;;24.06
64296;BMP280;51082;38.236;15.432;2022-07-17T03:31:23;101606.69;;;24.01
64296;BMP280;51082;38.236;15.432;2022-07-17T03:32:25;101603.22;;;24.00
64296;BMP280;51082;38.236;15.432;2022-07-17T03:33:28;101604.31;;;24.04
64296;BMP280;51082;38.236;15.432;2022-07-17T03:34:29;101603.00;;;24.07
64296;BMP280;51082;38.236;15.432;2022-07-17T03:35:32;101608.03;;;24.08
64296;BMP280;51082;38.236;15.432;2022-07-17T03:36:35;101600.84;;;24.09
64296;BMP280;51082;38.236;15.432;2022-07-17T03:37:37;101607.25;;;24.08
64296;BMP280;51082;38.236;15.432;2022-07-17T03:38:39;101607.22;;;24.03
64296;BMP280;51082;38.236;15.432;2022-07-17T03:39:42;101606.94;;;23.99
64296;BMP280;51082;38.236;15.432;2022-07-17T03:40:44;101597.91;;;24.00
64296;BMP280;51082;38.236;15.432;2022-07-17T03:41:48;101599.78;;;24.00
64296;BMP280;51082;38.236;15.432;2022-07-17T03:42:49;101606.69;;;24.01
64296;BMP280;51082;38.236;15.432;2022-07-17T03:43:52;101601.13;;;24.02
64296;BMP280;51082;38.236;15.432;2022-07-17T03:44:54;101605.38;;;24.08
64296;BMP280;51082;38.236;15.432;2022-07-17T03:45:56;101608.03;;;24.13
64296;BMP280;51082;38.236;15.432;2022-07-17T03:46:58;101603.78;;;24.12
64296;BMP280;51082;38.236;15.432;2022-07-17T03:48:01;101605.66;;;24.12
64296;BMP280;51082;38.236;15.432;2022-07-17T03:49:04;101614.44;;;24.12
64296;BMP280;51082;38.236;15.432;2022-07-17T03:50:06;101599.28;;;24.08
64296;BMP280;51082;38.236;15.432;2022-07-17T03:51:09;101609.63;;;24.09
64296;BMP280;51082;38.236;15.432;2022-07-17T03:52:10;101609.63;;;24.04
64296;BMP280;51082;38.236;15.432;2022-07-17T03:53:13;101605.91;;;24.00
64296;BMP280;51082;38.236;15.432;2022-07-17T03:54:14;101606.69;;;24.01
64296;BMP280;51082;38.236;15.432;2022-07-17T03:55:17;101608.56;;;24.00
64296;BMP280;51082;38.236;15.432;2022-07-17T03:56:19;101608.00;;;23.98
64296;BMP280;51082;38.236;15.432;2022-07-17T03:57:23;101611.19;;;23.95
64296;BMP280;51082;38.236;15.432;2022-07-17T03:58:25;101613.88;;;24.00
64296;BMP280;51082;38.236;15.432;2022-07-17T03:59:27;101607.75;;;24.00
64296;BMP280;51082;38.236;15.432;2022-07-17T04:00:29;101608.84;;;24.04
64296;BMP280;51082;38.236;15.432;2022-07-17T04:01:32;101610.13;;;24.01
64296;BMP280;51082;38.236;15.432;2022-07-17T04:02:33;101613.34;;;24.03
64296;BMP280;51082;38.236;15.432;2022-07-17T04:03:36;101610.13;;;24.01
64296;BMP280;51082;38.236;15.432;2022-07-17T04:04:38;101606.16;;;23.99
64296;BMP280;51082;38.236;15.432;2022-07-17T04:05:40;101611.22;;;24.00
64296;BMP280;51082;38.236;15.432;2022-07-17T04:06:42;101621.81;;;23.95
64296;BMP280;51082;38.236;15.432;2022-07-17T04:07:45;101618.66;;;23.98
64296;BMP280;51082;38.236;15.432;2022-07-17T04:08:46;101612.28;;;23.99
64296;BMP280;51082;38.236;15.432;2022-07-17T04:09:49;101613.06;;;24.00
64296;BMP280;51082;38.236;15.432;2022-07-17T04:10:50;101615.19;;;23.98
64296;BMP280;51082;38.236;15.432;2022-07-17T04:11:53;101617.59;;;23.99
64296;BMP280;51082;38.236;15.432;2022-07-17T04:12:56;101611.47;;;23.99
64296;BMP280;51082;38.236;15.432;2022-07-17T04:13:59;101618.09;;;23.96
64296;BMP280;51082;38.236;15.432;2022-07-17T04:15:01;101614.91;;;23.94
64296;BMP280;51082;38.236;15.432;2022-07-17T04:16:04;101617.56;;;23.94
64296;BMP280;51082;38.236;15.432;2022-07-17T04:17:06;101613.31;;;23.93
64296;BMP280;51082;38.236;15.432;2022-07-17T04:18:08;101611.72;;;23.97
64296;BMP280;51082;38.236;15.432;2022-07-17T04:19:10;101610.66;;;23.98
64296;BMP280;51082;38.236;15.432;2022-07-17T04:20:13;101609.34;;;24.06
64296;BMP280;51082;38.236;15.432;2022-07-17T04:21:14;101613.09;;;24.10
64296;BMP280;51082;38.236;15.432;2022-07-17T04:22:17;101607.75;;;24.10
64296;BMP280;51082;38.236;15.432;2022-07-17T04:23:18;101613.09;;;24.15
64296;BMP280;51082;38.236;15.432;2022-07-17T04:24:21;101607.53;;;24.17
64296;BMP280;51082;38.236;15.432;2022-07-17T04:25:23;101603.53;;;24.14
64296;BMP280;51082;38.236;15.432;2022-07-17T04:26:25;101610.19;;;24.11
64296;BMP280;51082;38.236;15.432;2022-07-17T04:27:27;101613.88;;;24.10
64296;BMP280;51082;38.236;15.432;2022-07-17T04:28:31;101604.03;;;24.06
64296;BMP280;51082;38.236;15.432;2022-07-17T04:29:33;101611.78;;;24.07
64296;BMP280;51082;38.236;15.432;2022-07-17T04:30:37;101612.28;;;24.09
64296;BMP280;51082;38.236;15.432;2022-07-17T04:31:38;101610.97;;;24.12
64296;BMP280;51082;38.236;15.432;2022-07-17T04:32:41;101614.69;;;24.11
64296;BMP280;51082;38.236;15.432;2022-07-17T04:33:43;101614.69;;;24.11
64296;BMP280;51082;38.236;15.432;2022-07-17T04:34:45;101613.09;;;24.10
64296;BMP280;51082;38.236;15.432;2022-07-17T04:35:47;101614.97;;;24.15
64296;BMP280;51082;38.236;15.432;2022-07-17T04:36:50;101616.03;;;24.13
64296;BMP280;51082;38.236;15.432;2022-07-17T04:37:52;101616.84;;;24.14
64296;BMP280;51082;38.236;15.432;2022-07-17T04:38:54;101617.38;;;24.16
64296;BMP280;51082;38.236;15.432;2022-07-17T04:39:56;101616.03;;;24.19
64296;BMP280;51082;38.236;15.432;2022-07-17T04:40:59;101616.59;;;24.26
64296;BMP280;51082;38.236;15.432;2022-07-17T04:42:00;101619.50;;;24.24
64296;BMP280;51082;38.236;15.432;2022-07-17T04:43:04;101613.94;;;24.26
64296;BMP280;51082;38.236;15.432;2022-07-17T04:44:07;101614.75;;;24.26
64296;BMP280;51082;38.236;15.432;2022-07-17T04:45:10;101616.06;;;24.29
64296;BMP280;51082;38.236;15.432;2022-07-17T04:46:11;101613.66;;;24.27
64296;BMP280;51082;38.236;15.432;2022-07-17T04:47:14;101616.06;;;24.29
64296;BMP280;51082;38.236;15.432;2022-07-17T04:48:16;101613.41;;;24.34
64296;BMP280;51082;38.236;15.432;2022-07-17T04:49:18;101620.88;;;24.42
64296;BMP280;51082;38.236;15.432;2022-07-17T04:50:20;101618.22;;;24.47
64296;BMP280;51082;38.236;15.432;2022-07-17T04:51:23;101627.53;;;24.50
64296;BMP280;51082;38.236;15.432;2022-07-17T04:52:25;101625.41;;;24.52
64296;BMP280;51082;38.236;15.432;2022-07-17T04:53:27;101625.41;;;24.52
64296;BMP280;51082;38.236;15.432;2022-07-17T04:54:31;101621.91;;;24.51
64296;BMP280;51082;38.236;15.432;2022-07-17T04:55:33;101626.22;;;24.52
64296;BMP280;51082;38.236;15.432;2022-07-17T04:56:35;101627.28;;;24.56
64296;BMP280;51082;38.236;15.432;2022-07-17T04:57:38;101623.28;;;24.59
64296;BMP280;51082;38.236;15.432;2022-07-17T04:58:40;101620.34;;;24.60
64296;BMP280;51082;38.236;15.432;2022-07-17T04:59:44;101636.31;;;24.60
64296;BMP280;51082;38.236;15.432;2022-07-17T05:00:46;101625.94;;;24.64
64296;BMP280;51082;38.236;15.432;2022-07-17T05:01:48;101632.06;;;24.64
64296;BMP280;51082;38.236;15.432;2022-07-17T05:02:50;101627.81;;;24.68
64296;BMP280;51082;38.236;15.432;2022-07-17T05:03:53;101625.44;;;24.72
64296;BMP280;51082;38.236;15.432;2022-07-17T05:04:55;101627.81;;;24.73
64296;BMP280;51082;38.236;15.432;2022-07-17T05:05:58;101623.81;;;24.81
64296;BMP280;51082;38.236;15.432;2022-07-17T05:06:59;101629.13;;;24.91
64296;BMP280;51082;38.236;15.432;2022-07-17T05:08:03;101633.91;;;25.04
64296;BMP280;51082;38.236;15.432;2022-07-17T05:09:04;101638.97;;;25.16
64296;BMP280;51082;38.236;15.432;2022-07-17T05:10:08;101638.94;;;25.26
64296;BMP280;51082;38.236;15.432;2022-07-17T05:11:10;101640.78;;;25.36
64296;BMP280;51082;38.236;15.432;2022-07-17T05:12:12;101635.16;;;25.42
64296;BMP280;51082;38.236;15.432;2022-07-17T05:13:14;101633.47;;;25.62
64296;BMP280;51082;38.236;15.432;2022-07-17T05:14:17;101638.75;;;25.77
64296;BMP280;51082;38.236;15.432;2022-07-17T05:15:20;101634.94;;;25.98
64296;BMP280;51082;38.236;15.432;2022-07-17T05:16:23;101641.28;;;26.07
64296;BMP280;51082;38.236;15.432;2022-07-17T05:17:24;101645.53;;;26.13
64296;BMP280;51082;38.236;15.432;2022-07-17T05:18:27;101642.72;;;26.29
64296;BMP280;51082;38.236;15.432;2022-07-17T05:19:29;101649.13;;;26.33
64296;BMP280;51082;38.236;15.432;2022-07-17T05:20:31;101645.94;;;26.31
64296;BMP280;51082;38.236;15.432;2022-07-17T05:21:33;101641.66;;;26.30
64296;BMP280;51082;38.236;15.432;2022-07-17T05:22:35;101648.06;;;26.29
64296;BMP280;51082;38.236;15.432;2022-07-17T05:23:38;101652.31;;;26.35
64296;BMP280;51082;38.236;15.432;2022-07-17T05:24:40;101642.94;;;26.37
64296;BMP280;51082;38.236;15.432;2022-07-17T05:25:43;101645.81;;;26.46
64296;BMP280;51082;38.236;15.432;2022-07-17T05:26:45;101641.53;;;26.50
64296;BMP280;51082;38.236;15.432;2022-07-17T05:27:47;101644.44;;;26.48
64296;BMP280;51082;38.236;15.432;2022-07-17T05:28:49;101647.91;;;26.54
64296;BMP280;51082;38.236;15.432;2022-07-17T05:29:52;101648.16;;;26.57
64296;BMP280;51082;38.236;15.432;2022-07-17T05:30:55;101647.06;;;26.58
64296;BMP280;51082;38.236;15.432;2022-07-17T05:31:58;101651.00;;;26.61
64296;BMP280;51082;38.236;15.432;2022-07-17T05:32:59;101644.91;;;26.60
64296;BMP280;51082;38.236;15.432;2022-07-17T05:34:02;101645.44;;;26.63
64296;BMP280;51082;38.236;15.432;2022-07-17T05:35:05;101653.16;;;26.64
64296;BMP280;51082;38.236;15.432;2022-07-17T05:36:08;101653.09;;;26.69
64296;BMP280;51082;38.236;15.432;2022-07-17T05:37:09;101658.94;;;26.76
64296;BMP280;51082;38.236;15.432;2022-07-17T05:38:12;101657.28;;;26.80
64296;BMP280;51082;38.236;15.432;2022-07-17T05:39:14;101654.81;;;26.84
64296;BMP280;51082;38.236;15.432;2022-07-17T05:40:16;101663.56;;;26.94
64296;BMP280;51082;38.236;15.432;2022-07-17T05:41:18;101652.84;;;27.00
64296;BMP280;51082;38.236;15.432;2022-07-17T05:42:21;101661.88;;;27.04
64296;BMP280;51082;38.236;15.432;2022-07-17T05:43:23;101655.44;;;27.05
64296;BMP280;51082;38.236;15.432;2022-07-17T05:44:26;101662.63;;;27.09
64296;BMP280;51082;38.236;15.432;2022-07-17T05:45:28;101661.75;;;27.14
64296;BMP280;51082;38.236;15.432;2022-07-17T05:46:32;101656.34;;;27.19
64296;BMP280;51082;38.236;15.432;2022-07-17T05:47:33;101661.56;;;27.34
64296;BMP280;51082;38.236;15.432;2022-07-17T05:48:36;101657.91;;;27.49
64296;BMP280;51082;38.236;15.432;2022-07-17T05:49:38;101665.00;;;27.58
64296;BMP280;51082;38.236;15.432;2022-07-17T05:50:40;101655.75;;;27.69
64296;BMP280;51082;38.236;15.432;2022-07-17T05:51:42;101664.72;;;27.79
64296;BMP280;51082;38.236;15.432;2022-07-17T05:52:45;101660.34;;;27.88